createdAt,value
2018-11-26T00:01:48.707Z,6.80
2018-11-26T00:04:17.919Z,6.74
2018-11-26T00:06:47.131Z,6.78
2018-11-26T00:09:16.613Z,6.75
2018-11-26T00:11:46.788Z,6.70
2018-11-26T00:14:16.281Z,6.76
2018-11-26T00:16:45.532Z,6.73
2018-11-26T00:19:15.376Z,6.58
2018-11-26T00:21:44.649Z,6.63
2018-11-26T00:24:14.869Z,6.64
2018-11-26T00:26:44.307Z,6.72
2018-11-26T00:29:14.381Z,6.66
2018-11-26T00:31:44.105Z,6.79
2018-11-26T00:34:13.299Z,6.84
2018-11-26T00:36:42.595Z,6.71
2018-11-26T00:39:12.519Z,6.60
2018-11-26T00:41:41.749Z,6.63
2018-11-26T00:44:11.051Z,6.71
2018-11-26T00:46:40.227Z,6.60
2018-11-26T00:49:09.480Z,6.59
2018-11-26T00:51:38.634Z,6.48
2018-11-26T00:54:07.823Z,6.64
2018-11-26T00:56:37.023Z,6.60
2018-11-26T00:59:06.229Z,6.55
2018-11-26T01:01:35.438Z,6.66
2018-11-26T01:04:05.027Z,6.55
2018-11-26T01:06:34.231Z,6.56
2018-11-26T01:09:03.669Z,6.61
2018-11-26T01:11:32.825Z,6.71
2018-11-26T01:14:02.044Z,6.63
2018-11-26T01:16:31.246Z,6.59
2018-11-26T01:19:00.490Z,6.56
2018-11-26T01:21:29.716Z,6.56
2018-11-26T01:23:58.999Z,6.75
2018-11-26T01:26:28.234Z,6.58
2018-11-26T01:28:57.532Z,6.67
2018-11-26T01:31:26.749Z,6.78
2018-11-26T01:33:55.937Z,6.64
2018-11-26T01:36:25.156Z,6.60
2018-11-26T01:38:54.426Z,6.51
2018-11-26T01:41:23.693Z,6.58
2018-11-26T01:43:52.895Z,6.43
2018-11-26T01:46:22.122Z,6.52
2018-11-26T01:48:51.357Z,6.52
2018-11-26T01:51:20.647Z,6.53
2018-11-26T01:53:49.914Z,6.61
2018-11-26T01:56:19.209Z,6.60
2018-11-26T01:58:48.484Z,6.46
2018-11-26T02:01:17.819Z,6.46
2018-11-26T02:03:46.983Z,6.52
2018-11-26T02:06:16.827Z,6.60
2018-11-26T02:08:46.088Z,6.59
2018-11-26T02:11:15.929Z,6.67
2018-11-26T02:13:47.946Z,6.69
2018-11-26T02:16:17.888Z,6.48
2018-11-26T02:18:47.107Z,6.48
2018-11-26T02:21:16.989Z,6.38
2018-11-26T02:23:46.228Z,6.47
2018-11-26T02:26:15.798Z,6.32
2018-11-26T02:28:45.026Z,6.26
2018-11-26T02:31:14.875Z,6.48
2018-11-26T02:33:44.071Z,6.44
2018-11-26T02:36:13.940Z,6.45
2018-11-26T02:38:43.109Z,6.43
2018-11-26T02:41:12.326Z,6.44
2018-11-26T02:43:41.580Z,6.37
2018-11-26T02:46:11.383Z,6.27
2018-11-26T02:48:40.819Z,6.38
2018-11-26T02:51:10.078Z,6.52
2018-11-26T02:53:39.349Z,6.40
2018-11-26T02:56:08.557Z,6.45
2018-11-26T02:58:37.820Z,6.45
2018-11-26T03:01:07.285Z,6.58
2018-11-26T03:03:36.600Z,6.54
2018-11-26T03:06:06.129Z,6.48
2018-11-26T03:08:35.428Z,6.45
2018-11-26T03:11:04.728Z,6.52
2018-11-26T03:13:34.015Z,6.47
2018-11-26T03:16:03.233Z,6.49
2018-11-26T03:18:32.421Z,6.45
2018-11-26T03:21:01.636Z,6.34
2018-11-26T03:23:30.887Z,6.30
2018-11-26T03:26:00.093Z,6.35
2018-11-26T03:28:29.280Z,6.25
2018-11-26T03:30:58.516Z,6.35
2018-11-26T03:33:27.925Z,6.40
2018-11-26T03:35:57.279Z,6.39
2018-11-26T03:39:04.473Z,6.40
2018-11-26T03:41:33.770Z,6.35
2018-11-26T03:44:03.047Z,6.37
2018-11-26T03:46:32.306Z,6.39
2018-11-26T03:49:01.505Z,6.33
2018-11-26T03:51:30.801Z,6.37
2018-11-26T03:54:00.102Z,6.27
2018-11-26T03:56:30.219Z,6.43
2018-11-26T03:58:59.531Z,6.16
2018-11-26T04:01:28.806Z,6.28
2018-11-26T04:03:58.085Z,6.12
2018-11-26T04:06:27.491Z,6.20
2018-11-26T04:08:56.805Z,6.20
2018-11-26T04:11:26.114Z,6.04
2018-11-26T04:13:55.386Z,6.08
2018-11-26T04:16:24.627Z,5.84
2018-11-26T04:18:53.883Z,5.84
2018-11-26T04:21:23.228Z,5.89
2018-11-26T04:23:52.448Z,5.91
2018-11-26T04:26:21.659Z,5.80
2018-11-26T04:28:50.919Z,5.64
2018-11-26T04:31:20.146Z,5.54
2018-11-26T04:33:49.418Z,5.55
2018-11-26T04:36:18.752Z,5.54
2018-11-26T04:38:47.947Z,5.51
2018-11-26T04:41:17.643Z,5.64
2018-11-26T04:43:47.029Z,5.56
2018-11-26T04:46:16.559Z,5.57
2018-11-26T04:48:45.750Z,5.57
2018-11-26T04:51:15.534Z,5.72
2018-11-26T04:53:44.915Z,5.65
2018-11-26T04:56:14.760Z,5.49
2018-11-26T04:58:44.064Z,5.47
2018-11-26T05:01:13.385Z,5.55
2018-11-26T05:03:42.779Z,5.50
2018-11-26T05:06:12.083Z,5.39
2018-11-26T05:08:41.436Z,5.54
2018-11-26T05:11:10.814Z,5.40
2018-11-26T05:13:40.032Z,5.43
2018-11-26T05:16:09.324Z,5.36
2018-11-26T05:18:38.587Z,5.34
2018-11-26T05:21:07.900Z,5.29
2018-11-26T05:23:37.117Z,5.27
2018-11-26T05:26:06.582Z,5.32
2018-11-26T05:28:35.796Z,5.31
2018-11-26T05:31:05.150Z,5.27
2018-11-26T05:33:34.313Z,5.23
2018-11-26T05:36:03.513Z,5.22
2018-11-26T05:38:32.707Z,5.23
2018-11-26T05:41:02.557Z,5.23
2018-11-26T05:43:31.845Z,5.20
2018-11-26T05:46:01.172Z,5.15
2018-11-26T05:48:30.362Z,5.15
2018-11-26T05:50:59.641Z,5.23
2018-11-26T05:53:28.908Z,5.15
2018-11-26T05:55:58.190Z,5.25
2018-11-26T05:58:27.420Z,5.38
2018-11-26T06:00:56.765Z,5.34
2018-11-26T06:03:26.016Z,5.36
2018-11-26T06:05:55.224Z,5.36
2018-11-26T06:08:24.443Z,5.35
2018-11-26T06:10:53.712Z,5.40
2018-11-26T06:13:23.024Z,5.33
2018-11-26T06:15:52.251Z,5.31
2018-11-26T06:18:21.932Z,5.39
2018-11-26T06:20:52.362Z,5.59
2018-11-26T06:23:21.572Z,5.67
2018-11-26T06:25:50.872Z,5.61
2018-11-26T06:28:20.257Z,5.34
2018-11-26T06:30:49.431Z,5.51
2018-11-26T06:33:18.736Z,5.40
2018-11-26T06:35:47.975Z,5.42
2018-11-26T06:38:17.285Z,5.34
2018-11-26T06:40:46.479Z,5.49
2018-11-26T06:43:15.753Z,5.68
2018-11-26T06:45:45.210Z,5.54
2018-11-26T06:48:14.481Z,5.40
2018-11-26T06:50:44.423Z,5.36
2018-11-26T06:53:16.535Z,5.37
2018-11-26T06:55:45.761Z,5.57
2018-11-26T06:58:15.060Z,5.51
2018-11-26T07:00:44.337Z,5.56
2018-11-26T07:03:13.557Z,5.61
2018-11-26T07:05:51.468Z,5.71
2018-11-26T07:08:20.816Z,5.71
2018-11-26T07:10:50.010Z,5.65
2018-11-26T07:13:19.416Z,5.59
2018-11-26T07:15:48.633Z,5.66
2018-11-26T07:18:17.884Z,5.66
2018-11-26T07:20:47.100Z,5.88
2018-11-26T07:23:16.332Z,5.73
2018-11-26T07:25:45.547Z,5.72
2018-11-26T07:28:16.941Z,5.85
2018-11-26T07:30:46.153Z,5.70
2018-11-26T07:33:15.399Z,5.80
2018-11-26T07:35:44.599Z,5.76
2018-11-26T07:38:13.785Z,5.75
2018-11-26T07:40:42.939Z,5.77
2018-11-26T07:43:13.175Z,5.91
2018-11-26T07:45:42.383Z,6.00
2018-11-26T07:48:12.293Z,5.96
2018-11-26T07:50:41.529Z,6.01
2018-11-26T07:53:11.734Z,6.16
2018-11-26T07:55:41.251Z,6.04
2018-11-26T07:58:10.994Z,6.07
2018-11-26T08:00:40.258Z,6.07
2018-11-26T08:03:09.875Z,6.14
2018-11-26T08:05:39.111Z,6.02
2018-11-26T08:08:08.683Z,6.21
2018-11-26T08:10:38.102Z,6.25
2018-11-26T08:13:07.318Z,6.08
2018-11-26T08:15:36.571Z,6.07
2018-11-26T08:18:05.881Z,6.07
2018-11-26T08:20:35.123Z,6.28
2018-11-26T08:23:04.326Z,6.28
2018-11-26T08:25:33.556Z,6.32
2018-11-26T08:28:02.817Z,6.31
2018-11-26T08:30:32.100Z,6.24
2018-11-26T08:33:01.909Z,6.30
2018-11-26T08:35:31.501Z,6.09
2018-11-26T08:38:06.009Z,6.29
2018-11-26T08:40:40.603Z,6.31
2018-11-26T08:43:15.430Z,6.31
2018-11-26T08:45:52.812Z,6.31
2018-11-26T08:48:26.100Z,6.43
2018-11-26T08:50:57.241Z,6.42
2018-11-26T08:53:26.449Z,6.66
2018-11-26T08:55:55.757Z,6.74
2018-11-26T08:58:24.999Z,6.79
2018-11-26T09:00:59.459Z,7.06
2018-11-26T09:03:33.752Z,6.96
2018-11-26T09:06:03.709Z,7.06
2018-11-26T09:08:33.972Z,7.17
2018-11-26T09:11:03.888Z,7.27
2018-11-26T09:13:33.144Z,7.40
2018-11-26T09:16:02.362Z,7.48
2018-11-26T09:18:31.585Z,7.43
2018-11-26T09:21:00.858Z,7.52
2018-11-26T09:23:30.091Z,7.42
2018-11-26T09:25:59.312Z,7.28
2018-11-26T09:28:28.493Z,7.27
2018-11-26T09:30:57.749Z,7.29
2018-11-26T09:33:26.935Z,7.44
2018-11-26T09:35:56.216Z,7.61
2018-11-26T09:38:25.452Z,7.73
2018-11-26T09:40:55.078Z,7.67
2018-11-26T09:43:24.457Z,7.61
2018-11-26T09:45:53.612Z,7.52
2018-11-26T09:48:22.859Z,7.43
2018-11-26T09:50:52.103Z,7.49
2018-11-26T09:53:21.332Z,7.56
2018-11-26T09:55:50.572Z,7.52
2018-11-26T09:58:19.789Z,7.74
2018-11-26T10:00:49.110Z,7.72
2018-11-26T10:03:18.356Z,7.66
2018-11-26T10:05:47.584Z,7.73
2018-11-26T10:08:16.811Z,7.96
2018-11-26T10:10:46.023Z,7.70
2018-11-26T10:13:15.239Z,7.81
2018-11-26T10:15:44.546Z,7.81
2018-11-26T10:18:13.856Z,7.72
2018-11-26T10:20:43.182Z,7.84
2018-11-26T10:23:12.477Z,7.91
2018-11-26T10:25:41.702Z,7.94
2018-11-26T10:28:11.082Z,7.95
2018-11-26T10:30:40.301Z,8.13
2018-11-26T10:33:14.635Z,8.27
2018-11-26T10:35:39.183Z,8.25
2018-11-26T10:38:09.828Z,8.21
2018-11-26T10:40:39.139Z,8.34
2018-11-26T10:43:11.761Z,8.25
2018-11-26T10:45:38.231Z,8.15
2018-11-26T10:48:07.730Z,8.06
2018-11-26T10:50:36.950Z,8.23
2018-11-26T10:53:06.439Z,8.29
2018-11-26T10:55:36.463Z,8.56
2018-11-26T10:58:06.788Z,8.64
2018-11-26T11:00:41.842Z,8.38
2018-11-26T11:03:12.577Z,8.54
2018-11-26T11:05:42.625Z,8.46
2018-11-26T11:08:13.541Z,8.58
2018-11-26T11:10:44.106Z,8.40
2018-11-26T11:13:15.179Z,8.40
2018-11-26T11:15:45.357Z,8.29
2018-11-26T11:18:14.584Z,8.29
2018-11-26T11:20:43.909Z,8.25
2018-11-26T11:23:13.249Z,8.21
2018-11-26T11:25:42.726Z,8.21
2018-11-26T11:28:11.990Z,8.30
2018-11-26T11:30:41.181Z,8.29
2018-11-26T11:35:39.098Z,8.31
2018-11-26T11:38:08.662Z,8.18
2018-11-26T11:40:37.993Z,8.05
2018-11-26T11:43:07.243Z,8.09
2018-11-26T11:45:36.501Z,8.18
2018-11-26T11:48:06.353Z,7.94
2018-11-26T11:50:35.599Z,8.07
2018-11-26T11:53:05.294Z,8.16
2018-11-26T11:55:37.384Z,8.19
2018-11-26T11:58:06.780Z,8.00
2018-11-26T12:00:41.123Z,8.09
2018-11-26T12:03:15.341Z,8.03
2018-11-26T12:05:44.722Z,8.07
2018-11-26T12:08:14.138Z,8.13
2018-11-26T12:10:43.405Z,8.12
2018-11-26T12:13:14.204Z,8.19
2018-11-26T12:15:46.639Z,8.11
2018-11-26T12:18:15.900Z,8.12
2018-11-26T12:20:45.110Z,8.04
2018-11-26T12:23:14.399Z,7.83
2018-11-26T12:25:43.614Z,7.76
2018-11-26T12:28:12.795Z,7.69
2018-11-26T12:30:46.076Z,8.00
2018-11-26T12:33:15.266Z,7.88
2018-11-26T12:35:44.519Z,7.98
2018-11-26T12:38:13.730Z,7.86
2018-11-26T12:40:42.995Z,7.79
2018-11-26T12:43:12.481Z,7.64
2018-11-26T12:45:41.724Z,7.71
2018-11-26T12:48:11.249Z,7.84
2018-11-26T12:50:40.540Z,7.96
2018-11-26T12:53:10.173Z,7.96
2018-11-26T12:55:39.391Z,7.87
2018-11-26T12:58:09.045Z,7.89
2018-11-26T13:00:38.619Z,7.88
2018-11-26T13:03:11.311Z,8.00
2018-11-26T13:05:40.581Z,7.87
2018-11-26T13:08:10.195Z,7.78
2018-11-26T13:10:39.469Z,7.84
2018-11-26T13:13:10.159Z,7.83
2018-11-26T13:15:39.397Z,7.89
2018-11-26T13:18:09.096Z,7.87
2018-11-26T13:20:38.321Z,8.01
2018-11-26T13:23:09.109Z,7.94
2018-11-26T13:25:41.805Z,7.83
2018-11-26T13:28:09.554Z,7.73
2018-11-26T13:30:44.325Z,7.93
2018-11-26T13:33:14.993Z,7.81
2018-11-26T13:35:44.918Z,7.73
2018-11-26T13:38:14.304Z,7.78
2018-11-26T13:40:43.564Z,7.73
2018-11-26T13:43:14.401Z,7.97
2018-11-26T13:45:44.929Z,7.80
2018-11-26T13:48:15.325Z,7.81
2018-11-26T13:50:46.698Z,7.87
2018-11-26T13:53:15.937Z,8.06
2018-11-26T13:55:45.154Z,7.93
2018-11-26T13:58:14.394Z,7.73
2018-11-26T14:00:43.637Z,7.81
2018-11-26T14:03:12.857Z,7.86
2018-11-26T14:05:42.052Z,7.79
2018-11-26T14:08:11.421Z,7.80
2018-11-26T14:10:40.626Z,7.68
2018-11-26T14:13:12.699Z,7.53
2018-11-26T14:15:41.957Z,7.64
2018-11-26T14:18:11.589Z,7.68
2018-11-26T14:20:40.826Z,7.63
2018-11-26T14:23:10.613Z,7.69
2018-11-26T14:25:39.837Z,7.59
2018-11-26T14:28:09.561Z,7.67
2018-11-26T14:30:38.810Z,7.44
2018-11-26T14:33:08.027Z,7.51
2018-11-26T14:35:37.205Z,7.50
2018-11-26T14:38:09.047Z,7.52
2018-11-26T14:40:44.518Z,7.52
2018-11-26T14:43:13.725Z,7.66
2018-11-26T14:45:42.939Z,7.60
2018-11-26T14:48:12.183Z,7.53
2018-11-26T14:50:41.397Z,7.56
2018-11-26T14:53:12.881Z,7.32
2018-11-26T14:55:42.089Z,7.46
2018-11-26T14:58:11.321Z,7.41
2018-11-26T15:00:41.666Z,7.37
2018-11-26T15:03:11.012Z,7.36
2018-11-26T15:05:40.190Z,7.33
2018-11-26T15:08:09.753Z,7.24
2018-11-26T15:10:38.941Z,7.13
2018-11-26T15:13:08.789Z,7.13
2018-11-26T15:15:38.037Z,7.17
2018-11-26T15:18:07.617Z,7.09
2018-11-26T15:20:36.829Z,7.08
2018-11-26T15:23:07.277Z,6.85
2018-11-26T15:25:36.480Z,7.02
2018-11-26T15:28:08.954Z,7.00
2018-11-26T15:30:38.819Z,7.01
2018-11-26T15:33:08.773Z,6.81
2018-11-26T15:35:38.014Z,6.80
2018-11-26T15:38:07.368Z,6.81
2018-11-26T15:40:36.643Z,6.67
2018-11-26T15:43:06.404Z,6.80
2018-11-26T15:45:35.830Z,6.81
2018-11-26T15:48:07.674Z,6.73
2018-11-26T15:50:36.902Z,6.67
2018-11-26T15:53:07.174Z,6.76
2018-11-26T15:55:36.544Z,6.73
2018-11-26T15:58:06.573Z,6.71
2018-11-26T16:00:35.928Z,6.57
2018-11-26T16:03:05.638Z,6.51
2018-11-26T16:05:34.918Z,6.59
2018-11-26T16:08:07.186Z,6.59
2018-11-26T16:10:36.472Z,6.58
2018-11-26T16:13:07.168Z,6.47
2018-11-26T16:15:37.909Z,6.58
2018-11-26T16:18:08.845Z,6.52
2018-11-26T16:20:38.122Z,6.62
2018-11-26T16:23:08.739Z,6.48
2018-11-26T16:25:39.923Z,6.58
2018-11-26T16:28:09.541Z,6.64
2018-11-26T16:30:38.802Z,6.61
2018-11-26T16:33:08.537Z,6.46
2018-11-26T16:35:37.840Z,6.46
2018-11-26T16:38:07.830Z,6.42
2018-11-26T16:40:37.036Z,6.49
2018-11-26T16:43:06.834Z,6.34
2018-11-26T16:45:36.060Z,6.50
2018-11-26T16:48:05.391Z,6.26
2018-11-26T16:50:35.817Z,6.30
2018-11-26T16:53:05.229Z,6.47
2018-11-26T16:55:34.398Z,6.52
2018-11-26T16:58:03.845Z,6.23
2018-11-26T17:00:33.105Z,6.22
2018-11-26T17:03:02.590Z,6.27
2018-11-26T17:05:37.728Z,6.34
2018-11-26T17:08:08.495Z,6.14
2018-11-26T17:10:37.704Z,6.19
2018-11-26T17:13:07.134Z,6.07
2018-11-26T17:15:36.602Z,6.15
2018-11-26T17:18:06.903Z,6.16
2018-11-26T17:20:37.196Z,6.22
2018-11-26T17:23:06.910Z,6.11
2018-11-26T17:25:36.825Z,6.21
2018-11-26T17:28:06.484Z,6.19
2018-11-26T17:30:36.119Z,6.09
2018-11-26T17:33:06.260Z,6.11
2018-11-26T17:35:35.559Z,6.07
2018-11-26T17:38:04.819Z,6.07
2018-11-26T17:40:34.034Z,6.20
2018-11-26T17:43:03.226Z,6.15
2018-11-26T17:45:32.473Z,6.11
2018-11-26T17:48:01.737Z,6.15
2018-11-26T17:50:33.441Z,6.27
2018-11-26T17:53:02.704Z,6.32
2018-11-26T17:55:31.994Z,6.20
2018-11-26T17:58:01.229Z,6.12
2018-11-26T18:00:33.491Z,6.19
2018-11-26T18:03:02.782Z,6.04
2018-11-26T18:05:32.344Z,6.04
2018-11-26T18:08:18.293Z,6.14
2018-11-26T18:10:47.529Z,6.11
2018-11-26T18:13:16.817Z,6.05
2018-11-26T18:15:46.156Z,6.12
2018-11-26T18:18:16.989Z,6.06
2018-11-26T18:20:46.678Z,5.92
2018-11-26T18:23:16.791Z,5.94
2018-11-26T18:25:45.995Z,5.89
2018-11-26T18:28:16.450Z,5.89
2018-11-26T18:30:46.968Z,5.97
2018-11-26T18:33:16.801Z,5.91
2018-11-26T18:35:46.902Z,5.89
2018-11-26T18:38:17.264Z,5.84
2018-11-26T18:41:15.729Z,6.02
2018-11-26T18:43:45.124Z,5.89
2018-11-26T18:46:15.003Z,5.80
2018-11-26T18:48:45.375Z,5.82
2018-11-26T18:51:15.085Z,5.89
2018-11-26T18:53:44.431Z,5.92
2018-11-26T18:56:14.390Z,5.76
2018-11-26T18:58:43.651Z,5.88
2018-11-26T19:01:13.971Z,6.05
2018-11-26T19:03:43.219Z,5.86
2018-11-26T19:06:13.182Z,5.92
2018-11-26T19:08:42.386Z,5.79
2018-11-26T19:11:14.838Z,5.87
2018-11-26T19:13:53.411Z,5.85
2018-11-26T19:16:24.589Z,5.96
2018-11-26T19:18:53.784Z,5.75
2018-11-26T19:21:25.847Z,5.65
2018-11-26T19:23:55.050Z,5.66
2018-11-26T19:26:24.393Z,5.64
2018-11-26T19:28:53.617Z,5.77
2018-11-26T19:31:22.852Z,5.76
2018-11-26T19:33:52.110Z,5.72
2018-11-26T19:36:21.367Z,5.63
2018-11-26T19:38:50.582Z,5.63
2018-11-26T19:41:19.817Z,5.77
2018-11-26T19:43:49.137Z,5.77
2018-11-26T19:46:18.359Z,5.73
2018-11-26T19:48:47.650Z,5.67
2018-11-26T19:51:16.924Z,5.61
2018-11-26T19:53:46.154Z,5.65
2018-11-26T19:56:15.695Z,5.49
2018-11-26T19:58:44.942Z,5.62
2018-11-26T20:01:15.027Z,5.47
2018-11-26T20:03:46.977Z,5.42
2018-11-26T20:06:18.405Z,5.49
2018-11-26T20:08:49.054Z,5.43
2018-11-26T20:11:18.395Z,5.50
2018-11-26T20:13:48.750Z,5.50
2018-11-26T20:16:25.883Z,5.32
2018-11-26T20:18:55.166Z,5.29
2018-11-26T20:21:24.404Z,5.41
2018-11-26T20:23:53.625Z,5.33
2018-11-26T20:26:22.883Z,5.18
2018-11-26T20:28:56.793Z,5.30
2018-11-26T20:31:21.679Z,5.24
2018-11-26T20:33:51.716Z,5.27
2018-11-26T20:36:21.768Z,5.33
2018-11-26T20:38:50.981Z,5.40
2018-11-26T20:41:20.245Z,5.22
2018-11-26T20:43:49.442Z,5.24
2018-11-26T20:46:18.670Z,5.15
2018-11-26T20:48:47.945Z,5.17
2018-11-26T20:51:17.486Z,5.23
2018-11-26T20:53:46.732Z,5.16
2018-11-26T20:56:18.255Z,5.13
2018-11-26T20:58:47.963Z,5.07
2018-11-26T21:01:17.741Z,5.03
2018-11-26T21:03:46.986Z,5.16
2018-11-26T21:06:16.378Z,5.18
2018-11-26T21:08:45.630Z,4.93
2018-11-26T21:11:15.331Z,4.86
2018-11-26T21:13:44.619Z,4.92
2018-11-26T21:16:13.858Z,4.96
2018-11-26T21:18:43.205Z,4.90
2018-11-26T21:21:12.985Z,4.86
2018-11-26T21:23:42.186Z,5.06
2018-11-26T21:26:11.598Z,4.91
2018-11-26T21:28:40.978Z,4.98
2018-11-26T21:31:10.218Z,5.01
2018-11-26T21:33:39.442Z,4.92
2018-11-26T21:36:08.923Z,4.85
2018-11-26T21:38:39.682Z,4.93
2018-11-26T21:41:08.960Z,5.04
2018-11-26T21:43:38.251Z,4.89
2018-11-26T21:46:08.311Z,4.92
2018-11-26T21:48:37.608Z,4.97
2018-11-26T21:51:06.943Z,4.75
2018-11-26T21:53:36.181Z,4.72
2018-11-26T21:56:05.527Z,4.79
2018-11-26T21:58:34.778Z,4.88
2018-11-26T22:01:06.184Z,4.91
2018-11-26T22:03:35.654Z,4.76
2018-11-26T22:06:05.474Z,4.76
2018-11-26T22:08:34.972Z,4.82
2018-11-26T22:11:04.302Z,4.68
2018-11-26T22:13:33.639Z,4.60
2018-11-26T22:16:02.877Z,4.64
2018-11-26T22:18:32.209Z,4.48
2018-11-26T22:21:01.437Z,4.67
2018-11-26T22:23:30.658Z,4.71
2018-11-26T22:25:59.918Z,4.45
2018-11-26T22:28:29.171Z,4.40
2018-11-26T22:30:58.494Z,4.46
2018-11-26T22:33:27.717Z,4.55
2018-11-26T22:35:57.566Z,4.64
2018-11-26T22:38:26.827Z,4.64
2018-11-26T22:40:56.100Z,4.56
2018-11-26T22:43:25.342Z,4.44
2018-11-26T22:45:54.668Z,4.57
2018-11-26T22:48:23.902Z,4.61
2018-11-26T22:50:53.157Z,4.46
2018-11-26T22:53:22.437Z,4.35
2018-11-26T22:55:51.653Z,4.40
2018-11-26T22:58:21.011Z,4.55
2018-11-26T23:00:52.736Z,4.54
2018-11-26T23:03:25.083Z,4.64
2018-11-26T23:05:54.316Z,4.65
2018-11-26T23:08:23.926Z,4.67
2018-11-26T23:10:53.177Z,4.50
2018-11-26T23:13:23.466Z,4.65
2018-11-26T23:15:52.681Z,4.65
2018-11-26T23:18:21.929Z,4.50
2018-11-26T23:20:52.687Z,4.59
2018-11-26T23:23:22.065Z,4.43
2018-11-26T23:25:52.060Z,4.45
2018-11-26T23:28:21.317Z,4.54
2018-11-26T23:30:50.592Z,4.39
2018-11-26T23:33:19.854Z,4.38
2018-11-26T23:35:50.340Z,4.41
2018-11-26T23:38:21.486Z,4.36
2018-11-26T23:40:50.770Z,4.39
2018-11-26T23:43:19.973Z,4.45
2018-11-26T23:45:49.189Z,4.40
2018-11-26T23:48:18.768Z,4.28
2018-11-26T23:50:48.021Z,4.49
2018-11-26T23:53:17.299Z,4.53
2018-11-26T23:55:46.608Z,4.49
2018-11-26T23:58:16.470Z,4.58
